Tropical Cyclones
[Index]
Main Index Home Page Stock Weather Photos Extreme Storms Discussion Storm News and Storm Chasing Reports Tropical Cyclones / Hurricanes / Typhoons Weather Data and Links Wild Fires / Bushfires Weather Observation Techniques Weather Picture Catalogue Tornado Pictures and Reports Stock Video Footage and DVDs for sale
Season 1983-1984 Tropical Cyclone FRITZ Track Map
Season 1983-1984 Summaries: [BoM-AU] [JTWC-AU] [JTWC-SIO] [JTWC-SPAC] [JTWC-SH]
<<- Previous TC | BoM 1983-1984 Season | Next TC ->>

click for intensity scale information  Lat/long Grid: Show Hide

 Date Labels: Show Hide

Bureau of Meteorology Tropical Cyclone Data

Name: FRITZ
Number: 646 / 198384_04

09 Dec 1983 06:00 UTC to 13 Dec 1983 03:00 UTC

    date/time    lat    long    hPa   cat  kts
1983-12-09 06   14.4   147.8   1003                     
1983-12-09 09   14.7   147.9   1003                     
1983-12-09 12   15.0   148.0   1004                     
1983-12-09 18   15.0   148.4   1004                     
1983-12-10 00   14.8   148.8   1003                     
1983-12-10 06   14.8   149.1   1002                     
1983-12-10 12   14.9   149.4   1002                     
1983-12-10 18   14.8   150.0   1001                     
1983-12-11 00   14.4   150.2   1000                     
1983-12-11 06   14.1   150.3    999                     
1983-12-11 12   14.2   150.7   1000                     
1983-12-11 18   14.4   151.4    998                     
1983-12-12 00   15.3   152.0    995    1                
1983-12-12 06   15.6   152.3    992    1                
1983-12-12 09   15.6   152.2    990    1                
1983-12-12 12   15.6   152.0    992    1                
1983-12-12 18   15.6   151.6    998                     
1983-12-13 00   15.7   151.2   1003                     
1983-12-13 03   15.7   151.0   1004                     
Winds are 10-min average.

Tropical cyclone tracks developed by Michael Bath using data from the Bureau of Meteorology and Google Maps.


[Australian Severe Weather index] [Copyright Notice] [Email Contacts] [Search This Site] [Privacy Policy]
Document: tropical_cyclone_fritz.htm Updated: 30 May 2013